Weather at Raleigh Durham International Airport

Public forecast

Using degrees Fahrenheit for public forecast. Weather courtesy of forecast.io.

Current aviation weather report (METAR) for Raleigh Durham International Airport

Report is more than 2 hours old.

2024/06/24 20:51 (retrieved 3 hours ago)

KRDU 242051Z 33008G17KT 310V020 10SM FEW065 SCT110 34/18 A2979 RMK AO2 SLP079 CB DSNT SE-S T03390178 55013

Aviation forecast (TAF) for Raleigh Durham International Airport

2024/06/24 21:03 Ammendment (retrieved 3 hours ago)

TAF AMD KRDU 242101Z 2421/2518 34008G15KT P6SM SCT080 SCT250 FM242300 05005KT P6SM SCT250